sensor_id;sensor_type;location;lat;lon;timestamp;temperature;humidity
1329;DHT22;658;48.820;9.354;2022-08-25T00:03:11;25.10;56.10
1329;DHT22;658;48.820;9.354;2022-08-25T00:07:12;25.10;56.20
1329;DHT22;658;48.820;9.354;2022-08-25T00:11:16;25.00;56.20
1329;DHT22;658;48.820;9.354;2022-08-25T00:15:17;25.10;56.30
1329;DHT22;658;48.820;9.354;2022-08-25T00:19:22;25.00;56.50
1329;DHT22;658;48.820;9.354;2022-08-25T00:23:23;24.80;56.70
1329;DHT22;658;48.820;9.354;2022-08-25T00:27:24;24.80;56.90
1329;DHT22;658;48.820;9.354;2022-08-25T00:31:25;24.80;56.70
1329;DHT22;658;48.820;9.354;2022-08-25T00:35:26;24.80;56.80
1329;DHT22;658;48.820;9.354;2022-08-25T00:39:27;24.80;57.10
1329;DHT22;658;48.820;9.354;2022-08-25T00:43:33;24.80;57.10
1329;DHT22;658;48.820;9.354;2022-08-25T00:47:35;24.80;57.10
1329;DHT22;658;48.820;9.354;2022-08-25T00:51:39;24.80;57.10
1329;DHT22;658;48.820;9.354;2022-08-25T00:55:42;24.80;57.00
1329;DHT22;658;48.820;9.354;2022-08-25T00:59:43;24.80;56.90
1329;DHT22;658;48.820;9.354;2022-08-25T01:03:44;24.80;56.80
1329;DHT22;658;48.820;9.354;2022-08-25T01:07:45;24.70;57.00
1329;DHT22;658;48.820;9.354;2022-08-25T01:11:46;24.70;57.30
1329;DHT22;658;48.820;9.354;2022-08-25T01:15:48;24.60;57.70
1329;DHT22;658;48.820;9.354;2022-08-25T01:19:49;24.50;58.10
1329;DHT22;658;48.820;9.354;2022-08-25T01:23:50;24.40;58.10
1329;DHT22;658;48.820;9.354;2022-08-25T01:27:52;24.50;57.90
1329;DHT22;658;48.820;9.354;2022-08-25T01:31:59;24.40;58.00
1329;DHT22;658;48.820;9.354;2022-08-25T01:36:00;24.40;57.90
1329;DHT22;658;48.820;9.354;2022-08-25T01:40:03;24.40;58.20
1329;DHT22;658;48.820;9.354;2022-08-25T01:44:04;24.40;58.10
1329;DHT22;658;48.820;9.354;2022-08-25T01:48:06;24.40;58.00
1329;DHT22;658;48.820;9.354;2022-08-25T01:52:23;24.40;58.00
1329;DHT22;658;48.820;9.354;2022-08-25T01:56:24;24.40;58.30
1329;DHT22;658;48.820;9.354;2022-08-25T02:00:25;24.30;58.20
1329;DHT22;658;48.820;9.354;2022-08-25T02:04:26;24.40;58.10
1329;DHT22;658;48.820;9.354;2022-08-25T02:08:28;24.40;57.90
1329;DHT22;658;48.820;9.354;2022-08-25T02:12:30;24.40;57.70
1329;DHT22;658;48.820;9.354;2022-08-25T02:16:34;24.40;57.70
1329;DHT22;658;48.820;9.354;2022-08-25T02:20:36;24.40;57.70
1329;DHT22;658;48.820;9.354;2022-08-25T02:24:37;24.40;57.50
1329;DHT22;658;48.820;9.354;2022-08-25T02:28:37;24.40;57.50
1329;DHT22;658;48.820;9.354;2022-08-25T02:32:38;24.40;57.40
1329;DHT22;658;48.820;9.354;2022-08-25T02:36:40;24.40;57.30
1329;DHT22;658;48.820;9.354;2022-08-25T02:40:41;24.40;57.20
1329;DHT22;658;48.820;9.354;2022-08-25T02:44:42;24.40;57.20
1329;DHT22;658;48.820;9.354;2022-08-25T02:48:42;24.40;57.20
1329;DHT22;658;48.820;9.354;2022-08-25T02:52:43;24.40;57.10
1329;DHT22;658;48.820;9.354;2022-08-25T02:56:44;24.30;57.10
1329;DHT22;658;48.820;9.354;2022-08-25T03:00:46;24.30;57.10
1329;DHT22;658;48.820;9.354;2022-08-25T03:04:46;24.30;57.20
1329;DHT22;658;48.820;9.354;2022-08-25T03:08:47;24.20;57.00
1329;DHT22;658;48.820;9.354;2022-08-25T03:12:48;24.20;56.90
1329;DHT22;658;48.820;9.354;2022-08-25T03:16:49;24.20;56.90
1329;DHT22;658;48.820;9.354;2022-08-25T03:20:49;24.20;56.90
1329;DHT22;658;48.820;9.354;2022-08-25T03:24:50;24.20;56.80
1329;DHT22;658;48.820;9.354;2022-08-25T03:28:51;24.20;56.90
1329;DHT22;658;48.820;9.354;2022-08-25T03:32:52;24.10;56.80
1329;DHT22;658;48.820;9.354;2022-08-25T03:36:54;24.10;56.90
1329;DHT22;658;48.820;9.354;2022-08-25T03:40:54;24.10;56.90
1329;DHT22;658;48.820;9.354;2022-08-25T03:44:55;24.10;56.90
1329;DHT22;658;48.820;9.354;2022-08-25T03:48:57;24.10;56.80
1329;DHT22;658;48.820;9.354;2022-08-25T03:52:59;24.10;56.90
1329;DHT22;658;48.820;9.354;2022-08-25T03:57:00;24.10;56.90
1329;DHT22;658;48.820;9.354;2022-08-25T04:01:00;24.10;56.90
1329;DHT22;658;48.820;9.354;2022-08-25T04:05:01;24.00;56.90
1329;DHT22;658;48.820;9.354;2022-08-25T04:09:02;24.00;56.90
1329;DHT22;658;48.820;9.354;2022-08-25T04:13:02;24.00;56.90
1329;DHT22;658;48.820;9.354;2022-08-25T04:17:03;24.00;56.90
1329;DHT22;658;48.820;9.354;2022-08-25T04:21:05;24.00;56.90
1329;DHT22;658;48.820;9.354;2022-08-25T04:25:08;24.00;56.90
1329;DHT22;658;48.820;9.354;2022-08-25T04:29:10;23.90;56.70
1329;DHT22;658;48.820;9.354;2022-08-25T04:33:11;23.90;56.70
1329;DHT22;658;48.820;9.354;2022-08-25T04:37:12;24.00;56.70
1329;DHT22;658;48.820;9.354;2022-08-25T04:41:15;23.90;56.70
1329;DHT22;658;48.820;9.354;2022-08-25T04:45:16;23.90;56.70
1329;DHT22;658;48.820;9.354;2022-08-25T04:49:17;23.90;56.70
1329;DHT22;658;48.820;9.354;2022-08-25T04:53:18;23.90;56.80
1329;DHT22;658;48.820;9.354;2022-08-25T04:57:20;23.90;56.80
1329;DHT22;658;48.820;9.354;2022-08-25T05:01:24;23.90;56.80
1329;DHT22;658;48.820;9.354;2022-08-25T05:05:24;23.80;56.80
1329;DHT22;658;48.820;9.354;2022-08-25T05:09:25;23.80;56.80
1329;DHT22;658;48.820;9.354;2022-08-25T05:13:26;23.80;56.80
1329;DHT22;658;48.820;9.354;2022-08-25T05:17:27;23.80;56.80
1329;DHT22;658;48.820;9.354;2022-08-25T05:21:27;23.80;56.80
1329;DHT22;658;48.820;9.354;2022-08-25T05:25:28;23.80;56.80
1329;DHT22;658;48.820;9.354;2022-08-25T05:29:29;23.80;56.80
1329;DHT22;658;48.820;9.354;2022-08-25T05:33:30;23.80;56.90
1329;DHT22;658;48.820;9.354;2022-08-25T05:37:31;23.80;56.90
1329;DHT22;658;48.820;9.354;2022-08-25T05:41:32;23.80;57.00
1329;DHT22;658;48.820;9.354;2022-08-25T05:45:33;23.90;57.20
1329;DHT22;658;48.820;9.354;2022-08-25T05:49:33;23.90;57.20
1329;DHT22;658;48.820;9.354;2022-08-25T05:53:35;23.90;57.40
1329;DHT22;658;48.820;9.354;2022-08-25T05:57:36;24.00;57.60
1329;DHT22;658;48.820;9.354;2022-08-25T06:01:37;24.10;57.70
1329;DHT22;658;48.820;9.354;2022-08-25T06:06:05;24.10;57.70
1329;DHT22;658;48.820;9.354;2022-08-25T06:10:07;24.10;57.80
1329;DHT22;658;48.820;9.354;2022-08-25T06:14:10;24.20;57.90
1329;DHT22;658;48.820;9.354;2022-08-25T06:18:11;24.30;58.30
1329;DHT22;658;48.820;9.354;2022-08-25T06:22:12;24.30;58.50
1329;DHT22;658;48.820;9.354;2022-08-25T06:26:12;24.20;58.70
1329;DHT22;658;48.820;9.354;2022-08-25T06:30:16;24.30;59.00
1329;DHT22;658;48.820;9.354;2022-08-25T06:34:18;24.30;59.20
1329;DHT22;658;48.820;9.354;2022-08-25T06:38:18;24.30;59.20
1329;DHT22;658;48.820;9.354;2022-08-25T06:42:19;24.30;59.40
1329;DHT22;658;48.820;9.354;2022-08-25T06:46:22;24.30;59.60
1329;DHT22;658;48.820;9.354;2022-08-25T06:50:23;24.40;59.60
1329;DHT22;658;48.820;9.354;2022-08-25T06:54:23;24.40;59.40
1329;DHT22;658;48.820;9.354;2022-08-25T06:58:24;24.50;59.20
1329;DHT22;658;48.820;9.354;2022-08-25T07:02:25;24.60;59.10
1329;DHT22;658;48.820;9.354;2022-08-25T07:06:29;24.60;59.70
1329;DHT22;658;48.820;9.354;2022-08-25T07:10:30;24.70;59.30
1329;DHT22;658;48.820;9.354;2022-08-25T07:14:31;24.70;59.40
1329;DHT22;658;48.820;9.354;2022-08-25T07:18:33;24.70;59.20
1329;DHT22;658;48.820;9.354;2022-08-25T07:22:34;24.80;59.30
1329;DHT22;658;48.820;9.354;2022-08-25T07:26:35;24.80;59.50
1329;DHT22;658;48.820;9.354;2022-08-25T07:30:36;24.90;59.50
1329;DHT22;658;48.820;9.354;2022-08-25T07:34:37;25.00;59.40
1329;DHT22;658;48.820;9.354;2022-08-25T07:39:00;25.00;59.30
1329;DHT22;658;48.820;9.354;2022-08-25T07:43:06;25.10;59.20
1329;DHT22;658;48.820;9.354;2022-08-25T07:47:07;25.10;58.90
1329;DHT22;658;48.820;9.354;2022-08-25T07:51:10;25.20;58.80
1329;DHT22;658;48.820;9.354;2022-08-25T07:55:10;25.30;58.50
1329;DHT22;658;48.820;9.354;2022-08-25T07:59:11;25.40;58.60
1329;DHT22;658;48.820;9.354;2022-08-25T08:03:12;25.40;58.50
1329;DHT22;658;48.820;9.354;2022-08-25T08:07:15;25.40;58.30
1329;DHT22;658;48.820;9.354;2022-08-25T08:11:17;25.50;58.50
1329;DHT22;658;48.820;9.354;2022-08-25T08:15:18;25.50;58.40
1329;DHT22;658;48.820;9.354;2022-08-25T08:19:20;25.60;58.40
1329;DHT22;658;48.820;9.354;2022-08-25T08:23:21;25.60;58.20
1329;DHT22;658;48.820;9.354;2022-08-25T08:27:27;25.60;58.20
1329;DHT22;658;48.820;9.354;2022-08-25T08:31:27;25.70;58.10
1329;DHT22;658;48.820;9.354;2022-08-25T08:35:28;25.70;58.10
1329;DHT22;658;48.820;9.354;2022-08-25T08:39:30;25.70;58.00
1329;DHT22;658;48.820;9.354;2022-08-25T08:43:30;25.80;57.90
1329;DHT22;658;48.820;9.354;2022-08-25T08:52:12;26.00;57.40
1329;DHT22;658;48.820;9.354;2022-08-25T08:56:44;26.10;57.00
1329;DHT22;658;48.820;9.354;2022-08-25T09:00:50;26.20;57.10
1329;DHT22;658;48.820;9.354;2022-08-25T09:04:58;26.30;56.70
1329;DHT22;658;48.820;9.354;2022-08-25T09:09:02;26.20;56.50
1329;DHT22;658;48.820;9.354;2022-08-25T09:13:18;26.40;56.40
1329;DHT22;658;48.820;9.354;2022-08-25T09:26:33;26.70;55.60
1329;DHT22;658;48.820;9.354;2022-08-25T09:30:53;26.80;55.40
1329;DHT22;658;48.820;9.354;2022-08-25T09:34:57;26.90;55.00
1329;DHT22;658;48.820;9.354;2022-08-25T09:38:59;27.00;54.70
1329;DHT22;658;48.820;9.354;2022-08-25T09:43:03;26.90;54.60
1329;DHT22;658;48.820;9.354;2022-08-25T09:47:12;26.90;54.70
1329;DHT22;658;48.820;9.354;2022-08-25T09:55:38;27.00;54.20
1329;DHT22;658;48.820;9.354;2022-08-25T09:59:40;27.10;53.50
1329;DHT22;658;48.820;9.354;2022-08-25T10:03:57;27.20;53.10
1329;DHT22;658;48.820;9.354;2022-08-25T10:08:03;27.30;52.40
1329;DHT22;658;48.820;9.354;2022-08-25T10:12:38;27.30;52.50
1329;DHT22;658;48.820;9.354;2022-08-25T10:16:39;27.40;52.80
1329;DHT22;658;48.820;9.354;2022-08-25T10:20:40;27.50;52.60
1329;DHT22;658;48.820;9.354;2022-08-25T10:24:41;27.60;52.50
1329;DHT22;658;48.820;9.354;2022-08-25T10:28:51;27.70;52.50
1329;DHT22;658;48.820;9.354;2022-08-25T10:45:29;27.90;51.20
1329;DHT22;658;48.820;9.354;2022-08-25T10:49:47;27.90;51.20
1329;DHT22;658;48.820;9.354;2022-08-25T11:19:41;28.30;49.60
1329;DHT22;658;48.820;9.354;2022-08-25T11:23:52;28.40;49.50
1329;DHT22;658;48.820;9.354;2022-08-25T11:32:03;28.50;49.40
1329;DHT22;658;48.820;9.354;2022-08-25T11:36:14;28.40;49.30
1329;DHT22;658;48.820;9.354;2022-08-25T11:40:25;28.40;49.50
1329;DHT22;658;48.820;9.354;2022-08-25T11:44:34;28.50;49.40
1329;DHT22;658;48.820;9.354;2022-08-25T11:52:57;28.60;49.10
1329;DHT22;658;48.820;9.354;2022-08-25T11:56:59;28.70;48.90
1329;DHT22;658;48.820;9.354;2022-08-25T12:01:02;28.70;48.90
1329;DHT22;658;48.820;9.354;2022-08-25T12:05:08;28.60;49.10
1329;DHT22;658;48.820;9.354;2022-08-25T12:09:18;28.70;49.10
1329;DHT22;658;48.820;9.354;2022-08-25T12:30:38;28.70;47.80
1329;DHT22;658;48.820;9.354;2022-08-25T12:38:53;28.70;47.90
1329;DHT22;658;48.820;9.354;2022-08-25T12:55:37;28.90;47.30
1329;DHT22;658;48.820;9.354;2022-08-25T12:59:41;28.90;47.00
1329;DHT22;658;48.820;9.354;2022-08-25T13:17:02;28.90;46.30
1329;DHT22;658;48.820;9.354;2022-08-25T13:21:29;29.00;46.50
1329;DHT22;658;48.820;9.354;2022-08-25T13:25:31;29.00;46.60
1329;DHT22;658;48.820;9.354;2022-08-25T13:29:35;29.10;46.10
1329;DHT22;658;48.820;9.354;2022-08-25T13:33:36;29.10;46.40
1329;DHT22;658;48.820;9.354;2022-08-25T13:37:37;29.20;46.20
1329;DHT22;658;48.820;9.354;2022-08-25T13:41:43;29.20;46.00
1329;DHT22;658;48.820;9.354;2022-08-25T13:45:46;29.20;46.00
1329;DHT22;658;48.820;9.354;2022-08-25T13:49:47;29.20;45.70
1329;DHT22;658;48.820;9.354;2022-08-25T13:57:53;29.20;45.70
1329;DHT22;658;48.820;9.354;2022-08-25T14:01:54;29.20;45.20
1329;DHT22;658;48.820;9.354;2022-08-25T14:10:35;29.40;45.00
1329;DHT22;658;48.820;9.354;2022-08-25T14:14:37;29.40;45.10
1329;DHT22;658;48.820;9.354;2022-08-25T14:18:37;29.50;45.10
1329;DHT22;658;48.820;9.354;2022-08-25T14:22:38;29.50;44.90
1329;DHT22;658;48.820;9.354;2022-08-25T14:26:39;29.50;44.70
1329;DHT22;658;48.820;9.354;2022-08-25T14:30:44;29.60;45.00
1329;DHT22;658;48.820;9.354;2022-08-25T14:34:45;29.50;44.50
1329;DHT22;658;48.820;9.354;2022-08-25T14:38:46;29.50;44.50
1329;DHT22;658;48.820;9.354;2022-08-25T14:42:48;29.50;44.20
1329;DHT22;658;48.820;9.354;2022-08-25T14:46:51;29.50;44.30
1329;DHT22;658;48.820;9.354;2022-08-25T14:50:55;29.50;44.10
1329;DHT22;658;48.820;9.354;2022-08-25T14:54:56;29.50;44.50
1329;DHT22;658;48.820;9.354;2022-08-25T14:58:57;29.50;44.00
1329;DHT22;658;48.820;9.354;2022-08-25T15:02:58;29.50;43.90
1329;DHT22;658;48.820;9.354;2022-08-25T15:06:59;29.50;43.90
1329;DHT22;658;48.820;9.354;2022-08-25T15:11:01;29.50;44.10
1329;DHT22;658;48.820;9.354;2022-08-25T15:15:02;29.60;44.10
1329;DHT22;658;48.820;9.354;2022-08-25T15:19:05;29.60;44.20
1329;DHT22;658;48.820;9.354;2022-08-25T15:23:06;29.60;44.40
1329;DHT22;658;48.820;9.354;2022-08-25T15:27:08;29.70;44.50
1329;DHT22;658;48.820;9.354;2022-08-25T15:31:09;29.60;44.60
1329;DHT22;658;48.820;9.354;2022-08-25T15:35:10;29.60;44.70
1329;DHT22;658;48.820;9.354;2022-08-25T15:39:13;29.60;44.80
1329;DHT22;658;48.820;9.354;2022-08-25T15:43:14;29.70;44.40
1329;DHT22;658;48.820;9.354;2022-08-25T15:47:14;29.70;44.20
1329;DHT22;658;48.820;9.354;2022-08-25T15:51:16;29.70;44.30
1329;DHT22;658;48.820;9.354;2022-08-25T15:55:18;29.70;44.10
1329;DHT22;658;48.820;9.354;2022-08-25T15:59:19;29.70;44.30
1329;DHT22;658;48.820;9.354;2022-08-25T16:03:20;29.70;44.60
1329;DHT22;658;48.820;9.354;2022-08-25T16:07:21;29.70;44.60
1329;DHT22;658;48.820;9.354;2022-08-25T16:11:24;29.80;44.70
1329;DHT22;658;48.820;9.354;2022-08-25T16:15:27;29.80;44.50
1329;DHT22;658;48.820;9.354;2022-08-25T16:19:28;29.70;44.20
1329;DHT22;658;48.820;9.354;2022-08-25T16:23:29;29.70;44.10
1329;DHT22;658;48.820;9.354;2022-08-25T16:27:29;29.70;44.00
1329;DHT22;658;48.820;9.354;2022-08-25T16:31:30;29.70;44.20
1329;DHT22;658;48.820;9.354;2022-08-25T16:35:32;29.60;44.30
1329;DHT22;658;48.820;9.354;2022-08-25T16:39:32;29.60;44.50
1329;DHT22;658;48.820;9.354;2022-08-25T16:43:33;29.60;44.80
1329;DHT22;658;48.820;9.354;2022-08-25T16:47:35;29.50;45.00
1329;DHT22;658;48.820;9.354;2022-08-25T16:51:38;29.50;45.10
1329;DHT22;658;48.820;9.354;2022-08-25T16:55:38;29.50;45.40
1329;DHT22;658;48.820;9.354;2022-08-25T16:59:39;29.40;45.40
1329;DHT22;658;48.820;9.354;2022-08-25T17:03:41;29.40;45.70
1329;DHT22;658;48.820;9.354;2022-08-25T17:07:43;29.40;45.90
1329;DHT22;658;48.820;9.354;2022-08-25T17:12:03;29.40;46.10
1329;DHT22;658;48.820;9.354;2022-08-25T17:16:05;29.30;46.30
1329;DHT22;658;48.820;9.354;2022-08-25T17:20:06;29.30;46.50
1329;DHT22;658;48.820;9.354;2022-08-25T17:24:07;29.30;46.80
1329;DHT22;658;48.820;9.354;2022-08-25T17:28:08;29.30;47.00
1329;DHT22;658;48.820;9.354;2022-08-25T17:32:09;29.20;47.00
1329;DHT22;658;48.820;9.354;2022-08-25T17:36:10;29.20;47.40
1329;DHT22;658;48.820;9.354;2022-08-25T17:40:11;29.20;47.60
1329;DHT22;658;48.820;9.354;2022-08-25T17:44:12;29.20;47.70
1329;DHT22;658;48.820;9.354;2022-08-25T17:48:13;29.10;48.00
1329;DHT22;658;48.820;9.354;2022-08-25T17:52:14;29.10;47.80
1329;DHT22;658;48.820;9.354;2022-08-25T17:56:17;29.10;47.90
1329;DHT22;658;48.820;9.354;2022-08-25T18:00:19;29.10;48.20
1329;DHT22;658;48.820;9.354;2022-08-25T18:04:20;29.10;48.30
1329;DHT22;658;48.820;9.354;2022-08-25T18:08:21;29.10;48.30
1329;DHT22;658;48.820;9.354;2022-08-25T18:12:22;29.00;48.30
1329;DHT22;658;48.820;9.354;2022-08-25T18:16:24;29.00;48.40
1329;DHT22;658;48.820;9.354;2022-08-25T18:20:25;29.00;48.40
1329;DHT22;658;48.820;9.354;2022-08-25T18:24:25;29.10;48.40
1329;DHT22;658;48.820;9.354;2022-08-25T18:28:26;29.00;48.50
1329;DHT22;658;48.820;9.354;2022-08-25T18:32:27;29.00;48.50
1329;DHT22;658;48.820;9.354;2022-08-25T18:36:28;29.00;48.50
1329;DHT22;658;48.820;9.354;2022-08-25T18:40:30;29.00;48.60
1329;DHT22;658;48.820;9.354;2022-08-25T18:44:31;28.90;48.60
1329;DHT22;658;48.820;9.354;2022-08-25T18:48:32;28.90;48.60
1329;DHT22;658;48.820;9.354;2022-08-25T18:52:33;28.80;48.70
1329;DHT22;658;48.820;9.354;2022-08-25T18:56:34;28.80;48.70
1329;DHT22;658;48.820;9.354;2022-08-25T19:00:36;28.80;48.70
1329;DHT22;658;48.820;9.354;2022-08-25T19:04:38;28.80;48.90
1329;DHT22;658;48.820;9.354;2022-08-25T19:08:39;28.70;48.90
1329;DHT22;658;48.820;9.354;2022-08-25T19:12:40;28.70;49.10
1329;DHT22;658;48.820;9.354;2022-08-25T19:16:41;28.70;49.20
1329;DHT22;658;48.820;9.354;2022-08-25T19:20:42;28.60;49.30
1329;DHT22;658;48.820;9.354;2022-08-25T19:24:44;28.60;49.40
1329;DHT22;658;48.820;9.354;2022-08-25T19:28:46;28.60;49.50
1329;DHT22;658;48.820;9.354;2022-08-25T19:32:47;28.60;49.40
1329;DHT22;658;48.820;9.354;2022-08-25T19:36:48;28.60;49.50
1329;DHT22;658;48.820;9.354;2022-08-25T19:40:51;28.50;49.40
1329;DHT22;658;48.820;9.354;2022-08-25T19:44:52;28.50;49.50
1329;DHT22;658;48.820;9.354;2022-08-25T19:48:53;28.50;49.60
1329;DHT22;658;48.820;9.354;2022-08-25T19:52:54;28.50;49.70
1329;DHT22;658;48.820;9.354;2022-08-25T19:56:55;28.50;49.50
1329;DHT22;658;48.820;9.354;2022-08-25T20:00:57;28.40;49.70
1329;DHT22;658;48.820;9.354;2022-08-25T20:04:58;28.40;49.80
1329;DHT22;658;48.820;9.354;2022-08-25T20:08:59;28.30;50.00
1329;DHT22;658;48.820;9.354;2022-08-25T20:13:00;28.30;50.00
1329;DHT22;658;48.820;9.354;2022-08-25T20:17:02;28.20;50.10
1329;DHT22;658;48.820;9.354;2022-08-25T20:21:02;28.20;50.70
1329;DHT22;658;48.820;9.354;2022-08-25T20:25:08;28.30;50.40
1329;DHT22;658;48.820;9.354;2022-08-25T20:29:10;28.30;50.40
1329;DHT22;658;48.820;9.354;2022-08-25T20:33:10;28.00;51.00
1329;DHT22;658;48.820;9.354;2022-08-25T20:37:11;27.80;51.90
1329;DHT22;658;48.820;9.354;2022-08-25T20:41:13;27.60;52.20
1329;DHT22;658;48.820;9.354;2022-08-25T20:45:16;27.30;52.90
1329;DHT22;658;48.820;9.354;2022-08-25T20:49:17;26.90;53.80
1329;DHT22;658;48.820;9.354;2022-08-25T20:53:19;26.80;54.40
1329;DHT22;658;48.820;9.354;2022-08-25T20:57:21;26.60;54.60
1329;DHT22;658;48.820;9.354;2022-08-25T21:01:24;26.50;54.90
1329;DHT22;658;48.820;9.354;2022-08-25T21:05:40;26.50;55.10
1329;DHT22;658;48.820;9.354;2022-08-25T21:09:41;26.30;55.10
1329;DHT22;658;48.820;9.354;2022-08-25T21:13:42;26.30;55.40
1329;DHT22;658;48.820;9.354;2022-08-25T21:17:51;26.40;55.40
1329;DHT22;658;48.820;9.354;2022-08-25T21:21:53;26.50;55.00
1329;DHT22;658;48.820;9.354;2022-08-25T21:25:54;26.60;54.80
1329;DHT22;658;48.820;9.354;2022-08-25T21:29:56;26.60;54.50
1329;DHT22;658;48.820;9.354;2022-08-25T21:33:57;26.70;54.40
1329;DHT22;658;48.820;9.354;2022-08-25T21:37:58;26.70;54.40
1329;DHT22;658;48.820;9.354;2022-08-25T21:41:59;26.70;54.20
1329;DHT22;658;48.820;9.354;2022-08-25T21:46:00;26.80;54.10
1329;DHT22;658;48.820;9.354;2022-08-25T21:50:01;26.80;54.00
1329;DHT22;658;48.820;9.354;2022-08-25T21:54:04;26.80;53.90
1329;DHT22;658;48.820;9.354;2022-08-25T21:58:10;26.80;53.90
1329;DHT22;658;48.820;9.354;2022-08-25T22:02:11;26.80;54.00
1329;DHT22;658;48.820;9.354;2022-08-25T22:06:13;26.70;53.90
1329;DHT22;658;48.820;9.354;2022-08-25T22:10:14;26.70;54.20
1329;DHT22;658;48.820;9.354;2022-08-25T22:14:16;26.60;54.20
1329;DHT22;658;48.820;9.354;2022-08-25T22:18:17;26.60;54.50
1329;DHT22;658;48.820;9.354;2022-08-25T22:22:17;26.50;54.50
1329;DHT22;658;48.820;9.354;2022-08-25T22:26:18;26.40;54.60
1329;DHT22;658;48.820;9.354;2022-08-25T22:30:19;26.50;54.70
1329;DHT22;658;48.820;9.354;2022-08-25T22:34:19;26.40;54.70
1329;DHT22;658;48.820;9.354;2022-08-25T22:38:20;26.40;54.90
1329;DHT22;658;48.820;9.354;2022-08-25T22:42:20;26.40;54.90
1329;DHT22;658;48.820;9.354;2022-08-25T22:46:23;26.30;54.90
1329;DHT22;658;48.820;9.354;2022-08-25T22:50:24;26.30;55.00
1329;DHT22;658;48.820;9.354;2022-08-25T22:54:24;26.30;55.00
1329;DHT22;658;48.820;9.354;2022-08-25T22:58:25;26.30;55.00
1329;DHT22;658;48.820;9.354;2022-08-25T23:02:26;26.30;55.10
1329;DHT22;658;48.820;9.354;2022-08-25T23:06:27;26.20;55.00
1329;DHT22;658;48.820;9.354;2022-08-25T23:10:28;26.20;55.10
1329;DHT22;658;48.820;9.354;2022-08-25T23:14:36;26.20;55.10
1329;DHT22;658;48.820;9.354;2022-08-25T23:18:38;26.20;55.20
1329;DHT22;658;48.820;9.354;2022-08-25T23:22:39;26.20;55.50
1329;DHT22;658;48.820;9.354;2022-08-25T23:26:40;26.10;55.40
1329;DHT22;658;48.820;9.354;2022-08-25T23:30:41;26.10;55.50
1329;DHT22;658;48.820;9.354;2022-08-25T23:34:44;26.10;55.70
1329;DHT22;658;48.820;9.354;2022-08-25T23:38:45;26.00;55.70
1329;DHT22;658;48.820;9.354;2022-08-25T23:42:46;26.10;55.80
1329;DHT22;658;48.820;9.354;2022-08-25T23:46:48;26.00;55.90
1329;DHT22;658;48.820;9.354;2022-08-25T23:50:48;26.00;55.90
1329;DHT22;658;48.820;9.354;2022-08-25T23:54:49;26.00;56.00
1329;DHT22;658;48.820;9.354;2022-08-25T23:58:50;26.00;55.90
